aviador You're here:

MMSP Decoded Metar

SAN LUIS POTOSI in MEXICO
Report Time2018-07-19 18:47:00
UTC Time2018-07-19 19:11:55
Flight Rules vfr VFR
Wind300° at 06 Gusting to 16 kt
W.Decomp.*RWY 32: 5.3 kt HW 2.7 kt LCW
RWY 22: 1.8 kt HW 5.7 kt RCW
W.Rank300° ranks 27
Current wind is above 300° avg. (5.9)
Visibility9999 m
Phenomena:N/A
Clouds:N/A
Expected CloudBase > 6,800 ft AGL from Temp-Dew spread
CeilingNone
Temp27°C (ISA +24)
Dew Point10°C (34% RH)
Heat Index26.6°C
AAT24.8°C
QNH1024 hPa
Density Alt8,816 ft
Elevation6,243 ft
Report Wrong Elevation
Raw Report
MMSP 191847Z 30006G16KT 15SM SKC 27/10 A3024 RMK ISOL CU=

Extra information for MMSP:More info

Metar Taf Metar & Taf Last 4 Metars F.Rules Stats Wind Profile Meteogram Temp Stats Airport Information Weather charts Add Link Nearby VenuesMetar ALERT Operation Metar Decoded Social comments